»·PEaware :: FDX592 KBOI-KGEG

FDX592 :: KBOI-KGEG

FLIGHT INFORMATION

Flight Status: Arrived
Operator:
Federal Express
More flights by this operator :: More flights under this callsign
Pilot: Luc P. (3613)
Aircraft: BOEING 767-300
(B763)
More flights by this aircraft type
Origin: KBOI Boise Air Terminal/Gowen
United States
Destination: KGEG Spokane Intl
United States
More flights between these airports :: More routes between these airports
Route: +BOI3 VALYY ODYSY PUW V253 GEG
File this flight plan on PilotEdge
Remarks: PBN / A1B1C1D1L1O1 DOF / 200511 REG / N162FE EET / KZSE0020 SEL / ALHD OPR / FDX PER / D RMK / TCAS)
Altitude:
(Current/Filed)
28,000ft
Speed:
(Current/Filed)
443kts
Departed: 11-May-20 10:40 AM
Arrived: 11-May-20 11:30 AM
Distance/Time
Traveled:
250nm/0:49
Distance/Time
To Go:
Arrived

Flight Plot

Page will automatically refresh every two minutes.


Map Options




Map Legend


Flown Route
Filed Route
Departure Airport
Arrival Airport
Navaid (VOR, NDB)
Fix

Horizontal Profiles

Position Reports

Time Latitude Longitude Heading Altitude Ground
Speed
11-May-20 10:17 43.566709 -116.243787 270 2821ft 0kts
11-May-20 10:18 43.566709 -116.243786 270 2821ft 0kts
11-May-20 10:19 43.566709 -116.243786 270 2821ft 0kts
11-May-20 10:21 43.566709 -116.243786 270 2821ft 0kts
11-May-20 10:22 43.566709 -116.243786 270 2821ft 0kts
11-May-20 10:23 43.566709 -116.243786 270 2821ft 0kts
11-May-20 10:24 43.566709 -116.243786 270 2821ft 0kts
11-May-20 10:25 43.566709 -116.243786 270 2821ft 0kts
11-May-20 10:26 43.566709 -116.243786 270 2821ft 0kts
11-May-20 10:27 43.566709 -116.243786 270 2821ft 0kts
11-May-20 10:28 43.566709 -116.243786 270 2821ft 0kts
11-May-20 10:29 43.566709 -116.243786 270 2821ft 0kts
11-May-20 10:30 43.566709 -116.243786 270 2821ft 0kts
11-May-20 10:31 43.566709 -116.243786 270 2821ft 0kts
11-May-20 10:32 43.566709 -116.243786 270 2821ft 0kts
11-May-20 10:33 43.566720 -116.243013 268 2824ft 2kts
11-May-20 10:34 43.566549 -116.242707 1 2824ft 0kts
11-May-20 10:35 43.566549 -116.242707 1 2824ft 0kts
11-May-20 10:36 43.566549 -116.242707 1 2824ft 0kts
11-May-20 10:37 43.566693 -116.242708 359 2824ft 3kts
11-May-20 10:38 43.568293 -116.242694 0 2826ft 7kts
11-May-20 10:38 43.569614 -116.242566 30 2827ft 5kts
11-May-20 10:40 43.563462 -116.223433 115 2857ft 153kts
11-May-20 10:41 43.543617 -116.159469 111 4549ft 203kts
11-May-20 10:42 43.520527 -116.076456 110 5887ft 263kts
11-May-20 10:43 43.493599 -115.979712 112 8511ft 276kts
11-May-20 10:43 43.482240 -115.893000 68 10244ft 305kts
11-May-20 10:45 43.574683 -115.837577 344 12187ft 351kts
11-May-20 10:45 43.654334 -115.867725 341 14393ft 362kts
11-May-20 10:47 43.769257 -115.910955 341 15845ft 369kts
11-May-20 10:47 43.852224 -115.942186 341 16000ft 369kts
11-May-20 10:48 43.953070 -115.980276 340 17840ft 379kts
11-May-20 10:49 44.057480 -116.019877 340 20474ft 394kts
11-May-20 10:50 44.164397 -116.060548 341 22887ft 408kts
11-May-20 10:51 44.281374 -116.068756 1 25396ft 431kts
11-May-20 10:52 44.402084 -116.073907 339 27854ft 433kts
11-May-20 10:53 44.516330 -116.127693 336 27900ft 427kts
11-May-20 10:54 44.630271 -116.183235 337 27891ft 435kts
11-May-20 10:55 44.745361 -116.239692 337 27889ft 435kts
11-May-20 10:56 44.860182 -116.296272 337 27888ft 435kts
11-May-20 10:57 44.975307 -116.353248 337 27889ft 435kts
11-May-20 10:58 45.090020 -116.410264 337 27882ft 434kts
11-May-20 10:59 45.203729 -116.467016 337 27878ft 434kts
11-May-20 11:00 45.318190 -116.524389 337 27878ft 434kts
11-May-20 11:01 45.433687 -116.582533 337 27877ft 435kts
11-May-20 11:02 45.548306 -116.640491 337 27878ft 434kts
11-May-20 11:03 45.661112 -116.697771 336 27883ft 433kts
11-May-20 11:04 45.774610 -116.755623 336 27406ft 418kts
11-May-20 11:05 45.882741 -116.811017 336 26386ft 405kts
11-May-20 11:06 45.989734 -116.866051 336 25383ft 403kts
11-May-20 11:07 46.095148 -116.920491 337 24286ft 396kts
11-May-20 11:08 46.192443 -116.970905 337 22943ft 388kts
11-May-20 11:09 46.293720 -117.023609 337 21504ft 381kts
11-May-20 11:10 46.392677 -117.075310 336 20060ft 373kts
11-May-20 11:11 46.489314 -117.125981 336 18626ft 362kts
11-May-20 11:12 46.583592 -117.175626 336 17268ft 355kts
11-May-20 11:13 46.676875 -117.224764 339 15941ft 350kts
11-May-20 11:14 46.771046 -117.266665 340 15906ft 352kts
11-May-20 11:15 46.864887 -117.308641 341 14343ft 345kts
11-May-20 11:16 46.955706 -117.349425 341 13259ft 337kts
11-May-20 11:17 47.044891 -117.389622 341 12244ft 326kts
11-May-20 11:18 47.124680 -117.438430 315 11916ft 305kts
11-May-20 11:19 47.184597 -117.527148 314 10377ft 297kts
11-May-20 11:20 47.241524 -117.612733 315 8718ft 288kts
11-May-20 11:21 47.293480 -117.697020 314 6926ft 270kts
11-May-20 11:22 47.353593 -117.739892 4 5355ft 240kts
11-May-20 11:23 47.417732 -117.736430 4 5015ft 218kts
11-May-20 11:24 47.476280 -117.728493 14 4429ft 209kts
11-May-20 11:25 47.518861 -117.686775 45 3952ft 174kts
11-May-20 11:26 47.552829 -117.636264 46 3874ft 158kts
11-May-20 11:27 47.579789 -117.595673 45 3205ft 137kts
11-May-20 11:28 47.607616 -117.553833 46 2516ft 139kts
11-May-20 11:29 47.623362 -117.531268 15 2365ft 16kts
11-May-20 11:30 47.625327 -117.530920 347 2362ft 5kts
11-May-20 11:31 47.626895 -117.528809 45 2359ft 10kts
11-May-20 11:32 47.628318 -117.528616 344 2357ft 0kts

Navigation Log

Ident Type
Flight plan parsing failed, navigation log unavailable